sensor_id;sensor_type;location;lat;lon;timestamp;pressure;altitude;pressure_sealevel;temperature;humidity
55912;BME280;41823;45.534;-73.332;2022-09-03T00:00:20;101642.11;;;32.10;22.79
55912;BME280;41823;45.534;-73.332;2022-09-03T00:02:53;101644.72;;;32.39;22.69
55912;BME280;41823;45.534;-73.332;2022-09-03T00:05:31;101646.16;;;31.91;22.90
55912;BME280;41823;45.534;-73.332;2022-09-03T00:08:05;101644.37;;;32.00;22.84
55912;BME280;41823;45.534;-73.332;2022-09-03T00:10:44;101643.94;;;32.07;22.61
55912;BME280;41823;45.534;-73.332;2022-09-03T00:13:18;101644.32;;;32.06;22.44
55912;BME280;41823;45.534;-73.332;2022-09-03T00:15:48;101647.74;;;32.33;22.47
55912;BME280;41823;45.534;-73.332;2022-09-03T00:18:20;101650.56;;;32.14;22.45
55912;BME280;41823;45.534;-73.332;2022-09-03T00:20:53;101654.74;;;32.30;22.36
55912;BME280;41823;45.534;-73.332;2022-09-03T00:23:25;101653.80;;;32.13;22.57
55912;BME280;41823;45.534;-73.332;2022-09-03T00:25:58;101660.05;;;32.01;22.55
55912;BME280;41823;45.534;-73.332;2022-09-03T00:28:34;101658.11;;;32.20;22.26
55912;BME280;41823;45.534;-73.332;2022-09-03T00:31:08;101653.29;;;32.12;22.10
55912;BME280;41823;45.534;-73.332;2022-09-03T00:33:41;101648.07;;;31.71;22.32
55912;BME280;41823;45.534;-73.332;2022-09-03T00:36:15;101653.82;;;32.02;22.21
55912;BME280;41823;45.534;-73.332;2022-09-03T00:38:45;101651.81;;;32.14;21.97
55912;BME280;41823;45.534;-73.332;2022-09-03T00:41:23;101653.16;;;32.23;22.22
55912;BME280;41823;45.534;-73.332;2022-09-03T00:44:10;101655.73;;;32.32;22.06
55912;BME280;41823;45.534;-73.332;2022-09-03T00:46:46;101655.26;;;32.19;22.29
55912;BME280;41823;45.534;-73.332;2022-09-03T00:49:27;101658.38;;;32.11;22.50
55912;BME280;41823;45.534;-73.332;2022-09-03T00:52:09;101661.97;;;32.34;22.69
55912;BME280;41823;45.534;-73.332;2022-09-03T00:54:47;101666.18;;;31.81;22.71
55912;BME280;41823;45.534;-73.332;2022-09-03T00:57:29;101669.90;;;31.91;22.26
55912;BME280;41823;45.534;-73.332;2022-09-03T01:00:06;101671.15;;;31.97;22.41
55912;BME280;41823;45.534;-73.332;2022-09-03T01:02:44;101664.17;;;32.01;22.31
55912;BME280;41823;45.534;-73.332;2022-09-03T01:05:23;101660.80;;;31.84;22.32
55912;BME280;41823;45.534;-73.332;2022-09-03T01:08:03;101660.56;;;31.86;22.36
55912;BME280;41823;45.534;-73.332;2022-09-03T01:10:43;101657.69;;;32.07;22.47
55912;BME280;41823;45.534;-73.332;2022-09-03T01:13:18;101661.98;;;32.05;22.80
55912;BME280;41823;45.534;-73.332;2022-09-03T01:15:57;101665.86;;;32.12;22.85
55912;BME280;41823;45.534;-73.332;2022-09-03T01:18:37;101669.01;;;32.09;22.92
55912;BME280;41823;45.534;-73.332;2022-09-03T01:21:23;101670.82;;;32.36;22.76
55912;BME280;41823;45.534;-73.332;2022-09-03T01:24:16;101675.74;;;32.13;22.91
55912;BME280;41823;45.534;-73.332;2022-09-03T01:27:01;101674.79;;;32.28;22.80
55912;BME280;41823;45.534;-73.332;2022-09-03T01:29:35;101672.32;;;32.38;22.65
55912;BME280;41823;45.534;-73.332;2022-09-03T01:32:11;101668.76;;;32.00;22.55
55912;BME280;41823;45.534;-73.332;2022-09-03T01:34:50;101667.14;;;32.13;22.81
55912;BME280;41823;45.534;-73.332;2022-09-03T01:37:30;101668.53;;;32.25;22.97
55912;BME280;41823;45.534;-73.332;2022-09-03T01:40:09;101670.69;;;32.21;23.01
55912;BME280;41823;45.534;-73.332;2022-09-03T01:42:50;101669.61;;;32.11;23.07
55912;BME280;41823;45.534;-73.332;2022-09-03T01:45:29;101669.78;;;32.42;23.17
55912;BME280;41823;45.534;-73.332;2022-09-03T01:48:11;101672.81;;;32.10;23.04
55912;BME280;41823;45.534;-73.332;2022-09-03T01:50:47;101671.11;;;32.09;22.69
55912;BME280;41823;45.534;-73.332;2022-09-03T01:53:31;101664.77;;;32.12;22.83
55912;BME280;41823;45.534;-73.332;2022-09-03T01:56:15;101667.56;;;32.15;22.65
55912;BME280;41823;45.534;-73.332;2022-09-03T01:58:49;101665.17;;;32.25;22.65
55912;BME280;41823;45.534;-73.332;2022-09-03T02:01:22;101666.70;;;32.56;22.76
55912;BME280;41823;45.534;-73.332;2022-09-03T02:03:53;101663.31;;;32.40;22.88
55912;BME280;41823;45.534;-73.332;2022-09-03T02:06:21;101664.06;;;32.10;23.09
55912;BME280;41823;45.534;-73.332;2022-09-03T02:08:49;101665.76;;;32.25;22.87
55912;BME280;41823;45.534;-73.332;2022-09-03T02:11:18;101664.61;;;32.21;22.98
55912;BME280;41823;45.534;-73.332;2022-09-03T02:13:49;101664.28;;;32.35;22.86
55912;BME280;41823;45.534;-73.332;2022-09-03T02:16:22;101662.19;;;32.20;23.07
55912;BME280;41823;45.534;-73.332;2022-09-03T02:18:53;101657.49;;;32.22;23.00
55912;BME280;41823;45.534;-73.332;2022-09-03T02:21:23;101661.44;;;32.34;22.91
55912;BME280;41823;45.534;-73.332;2022-09-03T02:23:52;101656.78;;;32.20;22.98
55912;BME280;41823;45.534;-73.332;2022-09-03T02:26:22;101659.24;;;32.13;23.02
55912;BME280;41823;45.534;-73.332;2022-09-03T02:28:52;101654.48;;;32.17;23.05
55912;BME280;41823;45.534;-73.332;2022-09-03T02:31:20;101655.35;;;32.42;23.09
55912;BME280;41823;45.534;-73.332;2022-09-03T02:33:49;101654.64;;;32.12;23.03
55912;BME280;41823;45.534;-73.332;2022-09-03T02:36:20;101659.44;;;32.19;22.52
55912;BME280;41823;45.534;-73.332;2022-09-03T02:38:51;101658.83;;;32.33;22.97
55912;BME280;41823;45.534;-73.332;2022-09-03T02:41:19;101657.70;;;32.50;23.03
55912;BME280;41823;45.534;-73.332;2022-09-03T02:43:50;101660.86;;;32.45;23.05
55912;BME280;41823;45.534;-73.332;2022-09-03T02:46:24;101661.78;;;32.23;22.89
55912;BME280;41823;45.534;-73.332;2022-09-03T02:48:54;101659.35;;;32.39;22.71
55912;BME280;41823;45.534;-73.332;2022-09-03T02:51:22;101653.25;;;32.23;23.05
55912;BME280;41823;45.534;-73.332;2022-09-03T02:53:50;101651.10;;;32.20;22.97
55912;BME280;41823;45.534;-73.332;2022-09-03T02:56:18;101646.43;;;32.19;23.07
55912;BME280;41823;45.534;-73.332;2022-09-03T02:58:45;101645.75;;;32.09;23.17
55912;BME280;41823;45.534;-73.332;2022-09-03T03:01:14;101642.44;;;32.40;22.83
55912;BME280;41823;45.534;-73.332;2022-09-03T03:03:41;101637.41;;;32.40;22.84
55912;BME280;41823;45.534;-73.332;2022-09-03T03:06:09;101639.71;;;32.30;22.86
55912;BME280;41823;45.534;-73.332;2022-09-03T03:08:38;101635.02;;;32.12;23.15
55912;BME280;41823;45.534;-73.332;2022-09-03T03:11:06;101637.97;;;32.17;23.18
55912;BME280;41823;45.534;-73.332;2022-09-03T03:13:34;101635.04;;;32.22;23.12
55912;BME280;41823;45.534;-73.332;2022-09-03T03:16:04;101633.06;;;32.18;23.10
55912;BME280;41823;45.534;-73.332;2022-09-03T03:18:32;101634.87;;;32.32;23.26
55912;BME280;41823;45.534;-73.332;2022-09-03T03:21:04;101636.37;;;32.05;23.03
55912;BME280;41823;45.534;-73.332;2022-09-03T03:23:32;101634.34;;;32.45;22.99
55912;BME280;41823;45.534;-73.332;2022-09-03T03:26:01;101637.00;;;32.31;23.23
55912;BME280;41823;45.534;-73.332;2022-09-03T03:28:29;101638.53;;;32.51;23.32
55912;BME280;41823;45.534;-73.332;2022-09-03T03:30:57;101638.26;;;32.35;23.24
55912;BME280;41823;45.534;-73.332;2022-09-03T03:33:25;101631.91;;;32.21;23.15
55912;BME280;41823;45.534;-73.332;2022-09-03T03:35:53;101638.73;;;32.18;23.06
55912;BME280;41823;45.534;-73.332;2022-09-03T03:38:21;101639.91;;;32.27;23.28
55912;BME280;41823;45.534;-73.332;2022-09-03T03:40:49;101638.73;;;32.21;23.02
55912;BME280;41823;45.534;-73.332;2022-09-03T03:43:17;101639.64;;;32.14;22.99
55912;BME280;41823;45.534;-73.332;2022-09-03T03:45:56;101641.49;;;32.38;22.76
55912;BME280;41823;45.534;-73.332;2022-09-03T03:48:23;101639.61;;;32.13;22.83
55912;BME280;41823;45.534;-73.332;2022-09-03T03:50:51;101644.95;;;32.39;22.72
55912;BME280;41823;45.534;-73.332;2022-09-03T03:53:19;101643.71;;;32.17;23.05
55912;BME280;41823;45.534;-73.332;2022-09-03T03:55:54;101640.65;;;32.13;23.02
55912;BME280;41823;45.534;-73.332;2022-09-03T03:58:23;101644.77;;;31.83;22.99
55912;BME280;41823;45.534;-73.332;2022-09-03T04:00:52;101645.11;;;32.13;22.91
55912;BME280;41823;45.534;-73.332;2022-09-03T04:03:20;101646.78;;;31.97;22.93
55912;BME280;41823;45.534;-73.332;2022-09-03T04:05:56;101643.97;;;32.05;22.88
55912;BME280;41823;45.534;-73.332;2022-09-03T04:08:24;101641.45;;;31.89;22.88
55912;BME280;41823;45.534;-73.332;2022-09-03T04:10:52;101637.37;;;31.61;22.80
55912;BME280;41823;45.534;-73.332;2022-09-03T04:13:20;101640.03;;;31.84;22.84
55912;BME280;41823;45.534;-73.332;2022-09-03T04:15:48;101642.24;;;31.71;23.05
55912;BME280;41823;45.534;-73.332;2022-09-03T04:18:16;101642.95;;;31.83;23.21
55912;BME280;41823;45.534;-73.332;2022-09-03T04:20:44;101642.81;;;31.78;22.62
55912;BME280;41823;45.534;-73.332;2022-09-03T04:23:12;101639.98;;;32.10;22.83
55912;BME280;41823;45.534;-73.332;2022-09-03T04:25:40;101637.98;;;31.68;22.79
55912;BME280;41823;45.534;-73.332;2022-09-03T04:28:08;101637.03;;;31.59;22.95
55912;BME280;41823;45.534;-73.332;2022-09-03T04:30:37;101636.33;;;31.84;23.02
55912;BME280;41823;45.534;-73.332;2022-09-03T04:33:05;101635.79;;;31.81;23.29
55912;BME280;41823;45.534;-73.332;2022-09-03T04:35:32;101638.61;;;32.11;23.20
55912;BME280;41823;45.534;-73.332;2022-09-03T04:38:00;101640.33;;;31.92;22.82
55912;BME280;41823;45.534;-73.332;2022-09-03T04:40:28;101644.00;;;31.95;22.96
55912;BME280;41823;45.534;-73.332;2022-09-03T04:42:57;101643.31;;;31.74;23.04
55912;BME280;41823;45.534;-73.332;2022-09-03T04:45:24;101643.12;;;31.84;22.93
55912;BME280;41823;45.534;-73.332;2022-09-03T04:47:57;101640.53;;;31.40;23.33
55912;BME280;41823;45.534;-73.332;2022-09-03T04:50:24;101644.25;;;32.09;23.33
55912;BME280;41823;45.534;-73.332;2022-09-03T04:52:52;101643.34;;;31.44;23.53
55912;BME280;41823;45.534;-73.332;2022-09-03T04:55:21;101639.87;;;31.80;23.41
55912;BME280;41823;45.534;-73.332;2022-09-03T04:57:49;101639.25;;;31.82;23.04
55912;BME280;41823;45.534;-73.332;2022-09-03T05:00:17;101636.70;;;31.42;23.07
55912;BME280;41823;45.534;-73.332;2022-09-03T05:02:45;101635.86;;;31.89;23.26
55912;BME280;41823;45.534;-73.332;2022-09-03T05:05:13;101635.16;;;31.49;23.46
55912;BME280;41823;45.534;-73.332;2022-09-03T05:07:40;101631.46;;;31.88;23.25
55912;BME280;41823;45.534;-73.332;2022-09-03T05:10:10;101638.55;;;31.76;23.28
55912;BME280;41823;45.534;-73.332;2022-09-03T05:12:38;101641.78;;;31.94;23.14
55912;BME280;41823;45.534;-73.332;2022-09-03T05:15:07;101647.38;;;31.25;23.22
55912;BME280;41823;45.534;-73.332;2022-09-03T05:17:35;101648.99;;;31.54;22.84
55912;BME280;41823;45.534;-73.332;2022-09-03T05:20:03;101651.70;;;31.42;22.78
55912;BME280;41823;45.534;-73.332;2022-09-03T05:22:32;101654.75;;;31.21;23.12
55912;BME280;41823;45.534;-73.332;2022-09-03T05:25:01;101648.53;;;31.71;23.11
55912;BME280;41823;45.534;-73.332;2022-09-03T05:27:30;101646.73;;;31.69;23.07
55912;BME280;41823;45.534;-73.332;2022-09-03T05:29:59;101646.33;;;31.64;22.94
55912;BME280;41823;45.534;-73.332;2022-09-03T05:32:29;101645.31;;;31.76;22.92
55912;BME280;41823;45.534;-73.332;2022-09-03T05:34:57;101642.88;;;31.74;23.14
55912;BME280;41823;45.534;-73.332;2022-09-03T05:37:26;101642.18;;;32.02;22.97
55912;BME280;41823;45.534;-73.332;2022-09-03T05:39:53;101640.14;;;31.36;23.03
55912;BME280;41823;45.534;-73.332;2022-09-03T05:42:21;101636.85;;;31.93;22.82
55912;BME280;41823;45.534;-73.332;2022-09-03T05:44:49;101643.63;;;31.72;22.73
55912;BME280;41823;45.534;-73.332;2022-09-03T05:47:17;101646.39;;;31.70;22.80
55912;BME280;41823;45.534;-73.332;2022-09-03T05:49:45;101644.77;;;31.20;22.95
55912;BME280;41823;45.534;-73.332;2022-09-03T05:52:13;101643.43;;;31.86;23.00
55912;BME280;41823;45.534;-73.332;2022-09-03T05:54:41;101643.83;;;31.16;23.18
55912;BME280;41823;45.534;-73.332;2022-09-03T05:57:09;101645.38;;;31.22;23.10
55912;BME280;41823;45.534;-73.332;2022-09-03T05:59:37;101643.25;;;31.78;23.10
55912;BME280;41823;45.534;-73.332;2022-09-03T06:02:05;101644.34;;;31.60;23.08
55912;BME280;41823;45.534;-73.332;2022-09-03T06:04:33;101647.14;;;31.70;22.93
55912;BME280;41823;45.534;-73.332;2022-09-03T06:07:01;101651.95;;;31.22;23.27
55912;BME280;41823;45.534;-73.332;2022-09-03T06:09:29;101658.52;;;31.72;23.36
55912;BME280;41823;45.534;-73.332;2022-09-03T06:11:57;101659.78;;;31.57;23.21
55912;BME280;41823;45.534;-73.332;2022-09-03T06:14:25;101660.35;;;31.50;23.17
55912;BME280;41823;45.534;-73.332;2022-09-03T06:16:52;101653.42;;;31.67;23.42
55912;BME280;41823;45.534;-73.332;2022-09-03T06:19:20;101654.35;;;31.65;23.25
55912;BME280;41823;45.534;-73.332;2022-09-03T06:21:48;101659.36;;;31.67;23.34
55912;BME280;41823;45.534;-73.332;2022-09-03T06:24:18;101658.05;;;31.60;23.24
55912;BME280;41823;45.534;-73.332;2022-09-03T06:26:46;101654.38;;;31.93;23.19
55912;BME280;41823;45.534;-73.332;2022-09-03T06:29:15;101654.36;;;31.95;23.05
55912;BME280;41823;45.534;-73.332;2022-09-03T06:31:42;101655.00;;;31.84;23.19
55912;BME280;41823;45.534;-73.332;2022-09-03T06:34:10;101656.23;;;31.67;22.90
55912;BME280;41823;45.534;-73.332;2022-09-03T06:36:38;101655.40;;;31.93;23.19
55912;BME280;41823;45.534;-73.332;2022-09-03T06:39:06;101656.49;;;31.45;23.40
55912;BME280;41823;45.534;-73.332;2022-09-03T06:41:34;101658.48;;;31.82;23.36
55912;BME280;41823;45.534;-73.332;2022-09-03T06:44:04;101664.40;;;31.64;23.08
55912;BME280;41823;45.534;-73.332;2022-09-03T06:46:34;101661.86;;;31.66;23.31
55912;BME280;41823;45.534;-73.332;2022-09-03T06:49:02;101667.83;;;31.92;23.26
55912;BME280;41823;45.534;-73.332;2022-09-03T06:51:31;101669.35;;;31.67;23.27
55912;BME280;41823;45.534;-73.332;2022-09-03T06:54:03;101667.25;;;32.00;23.05
55912;BME280;41823;45.534;-73.332;2022-09-03T06:56:31;101664.92;;;32.03;23.19
55912;BME280;41823;45.534;-73.332;2022-09-03T06:59:03;101664.55;;;31.89;23.18
55912;BME280;41823;45.534;-73.332;2022-09-03T07:01:32;101662.65;;;32.31;23.00
55912;BME280;41823;45.534;-73.332;2022-09-03T07:04:02;101660.71;;;31.67;23.18
55912;BME280;41823;45.534;-73.332;2022-09-03T07:06:31;101660.43;;;31.73;23.13
55912;BME280;41823;45.534;-73.332;2022-09-03T07:08:59;101658.93;;;32.02;23.18
55912;BME280;41823;45.534;-73.332;2022-09-03T07:11:28;101657.22;;;31.81;23.33
55912;BME280;41823;45.534;-73.332;2022-09-03T07:13:58;101660.58;;;31.97;23.29
55912;BME280;41823;45.534;-73.332;2022-09-03T07:16:27;101666.84;;;31.78;23.44
55912;BME280;41823;45.534;-73.332;2022-09-03T07:18:56;101669.83;;;31.58;23.38
55912;BME280;41823;45.534;-73.332;2022-09-03T07:21:25;101670.08;;;32.06;23.39
55912;BME280;41823;45.534;-73.332;2022-09-03T07:23:54;101672.91;;;31.32;23.67
55912;BME280;41823;45.534;-73.332;2022-09-03T07:26:24;101675.03;;;31.42;23.53
55912;BME280;41823;45.534;-73.332;2022-09-03T07:28:53;101680.31;;;31.85;23.42
55912;BME280;41823;45.534;-73.332;2022-09-03T07:31:22;101683.87;;;31.50;23.59
55912;BME280;41823;45.534;-73.332;2022-09-03T07:33:53;101685.89;;;31.71;23.69
55912;BME280;41823;45.534;-73.332;2022-09-03T07:36:21;101685.29;;;31.37;23.57
55912;BME280;41823;45.534;-73.332;2022-09-03T07:38:49;101689.17;;;31.73;23.47
55912;BME280;41823;45.534;-73.332;2022-09-03T07:41:17;101688.41;;;32.16;23.48
55912;BME280;41823;45.534;-73.332;2022-09-03T07:43:46;101693.75;;;31.94;23.49
55912;BME280;41823;45.534;-73.332;2022-09-03T07:46:15;101699.10;;;32.27;23.44
55912;BME280;41823;45.534;-73.332;2022-09-03T07:48:46;101701.35;;;31.97;23.51
55912;BME280;41823;45.534;-73.332;2022-09-03T07:51:14;101706.15;;;31.97;23.54
55912;BME280;41823;45.534;-73.332;2022-09-03T07:53:42;101700.45;;;31.77;23.72
55912;BME280;41823;45.534;-73.332;2022-09-03T07:56:10;101693.44;;;31.50;23.53
55912;BME280;41823;45.534;-73.332;2022-09-03T07:58:39;101692.57;;;32.07;23.63
55912;BME280;41823;45.534;-73.332;2022-09-03T08:01:09;101698.19;;;32.07;23.40
55912;BME280;41823;45.534;-73.332;2022-09-03T08:03:38;101704.21;;;31.54;23.60
55912;BME280;41823;45.534;-73.332;2022-09-03T08:06:10;101710.99;;;31.91;23.74
55912;BME280;41823;45.534;-73.332;2022-09-03T08:08:39;101715.16;;;32.11;23.54
55912;BME280;41823;45.534;-73.332;2022-09-03T08:11:09;101720.25;;;31.54;23.63
55912;BME280;41823;45.534;-73.332;2022-09-03T08:13:38;101720.84;;;32.00;23.68
55912;BME280;41823;45.534;-73.332;2022-09-03T08:16:07;101714.15;;;31.93;23.72
55912;BME280;41823;45.534;-73.332;2022-09-03T08:18:36;101716.00;;;31.86;23.63
55912;BME280;41823;45.534;-73.332;2022-09-03T08:21:05;101710.56;;;31.99;23.76
55912;BME280;41823;45.534;-73.332;2022-09-03T08:23:36;101712.26;;;31.39;23.79
55912;BME280;41823;45.534;-73.332;2022-09-03T08:26:05;101716.63;;;31.66;23.47
55912;BME280;41823;45.534;-73.332;2022-09-03T08:28:34;101710.68;;;31.50;23.62
55912;BME280;41823;45.534;-73.332;2022-09-03T08:31:06;101701.23;;;31.53;23.63
55912;BME280;41823;45.534;-73.332;2022-09-03T08:33:34;101698.35;;;31.56;23.51
55912;BME280;41823;45.534;-73.332;2022-09-03T08:36:04;101703.67;;;31.71;23.58
55912;BME280;41823;45.534;-73.332;2022-09-03T08:38:34;101706.07;;;31.70;23.51
55912;BME280;41823;45.534;-73.332;2022-09-03T08:41:05;101709.63;;;31.80;23.53
55912;BME280;41823;45.534;-73.332;2022-09-03T08:43:43;101710.02;;;31.72;23.46
55912;BME280;41823;45.534;-73.332;2022-09-03T08:46:17;101708.92;;;31.93;23.46
55912;BME280;41823;45.534;-73.332;2022-09-03T08:48:47;101710.28;;;31.69;23.40
55912;BME280;41823;45.534;-73.332;2022-09-03T08:51:16;101721.04;;;31.78;23.60
55912;BME280;41823;45.534;-73.332;2022-09-03T08:53:50;101718.68;;;31.42;23.70
55912;BME280;41823;45.534;-73.332;2022-09-03T08:56:23;101709.22;;;31.56;23.56
55912;BME280;41823;45.534;-73.332;2022-09-03T08:58:51;101707.04;;;31.81;23.26
55912;BME280;41823;45.534;-73.332;2022-09-03T09:01:29;101706.63;;;31.60;23.41
55912;BME280;41823;45.534;-73.332;2022-09-03T09:04:10;101708.30;;;31.72;23.58
55912;BME280;41823;45.534;-73.332;2022-09-03T09:06:49;101704.31;;;31.82;23.56
55912;BME280;41823;45.534;-73.332;2022-09-03T09:09:27;101698.02;;;31.42;23.39
55912;BME280;41823;45.534;-73.332;2022-09-03T09:12:07;101695.18;;;31.53;23.41
55912;BME280;41823;45.534;-73.332;2022-09-03T09:14:41;101695.53;;;32.00;23.37
55912;BME280;41823;45.534;-73.332;2022-09-03T09:17:24;101692.86;;;31.88;23.43
55912;BME280;41823;45.534;-73.332;2022-09-03T09:20:05;101697.54;;;31.86;23.45
55912;BME280;41823;45.534;-73.332;2022-09-03T09:22:38;101694.80;;;32.00;23.40
55912;BME280;41823;45.534;-73.332;2022-09-03T09:25:11;101695.16;;;31.51;23.60
55912;BME280;41823;45.534;-73.332;2022-09-03T09:27:46;101688.56;;;31.61;23.51
55912;BME280;41823;45.534;-73.332;2022-09-03T09:30:15;101688.15;;;31.94;23.16
55912;BME280;41823;45.534;-73.332;2022-09-03T09:32:43;101693.87;;;31.54;23.46
55912;BME280;41823;45.534;-73.332;2022-09-03T09:35:11;101688.13;;;31.51;23.49
55912;BME280;41823;45.534;-73.332;2022-09-03T09:37:49;101690.46;;;31.74;23.52
55912;BME280;41823;45.534;-73.332;2022-09-03T09:40:28;101689.80;;;31.64;23.66
55912;BME280;41823;45.534;-73.332;2022-09-03T09:43:20;101688.94;;;31.63;23.63
55912;BME280;41823;45.534;-73.332;2022-09-03T09:45:49;101687.76;;;31.78;23.47
55912;BME280;41823;45.534;-73.332;2022-09-03T09:48:22;101684.95;;;31.58;23.38
55912;BME280;41823;45.534;-73.332;2022-09-03T09:51:04;101691.00;;;31.66;23.21
55912;BME280;41823;45.534;-73.332;2022-09-03T09:53:32;101689.91;;;31.80;23.30
55912;BME280;41823;45.534;-73.332;2022-09-03T09:56:00;101693.55;;;31.44;23.35
55912;BME280;41823;45.534;-73.332;2022-09-03T09:58:30;101692.25;;;31.82;23.26
55912;BME280;41823;45.534;-73.332;2022-09-03T10:01:01;101689.84;;;31.65;23.18
55912;BME280;41823;45.534;-73.332;2022-09-03T10:03:32;101687.66;;;31.45;23.37
55912;BME280;41823;45.534;-73.332;2022-09-03T10:06:04;101690.81;;;31.42;23.40
55912;BME280;41823;45.534;-73.332;2022-09-03T10:08:32;101689.61;;;31.71;23.36
55912;BME280;41823;45.534;-73.332;2022-09-03T10:11:00;101694.06;;;31.69;23.33
55912;BME280;41823;45.534;-73.332;2022-09-03T10:13:33;101693.30;;;31.39;23.39
55912;BME280;41823;45.534;-73.332;2022-09-03T10:16:07;101692.76;;;31.41;23.11
55912;BME280;41823;45.534;-73.332;2022-09-03T10:18:42;101695.78;;;31.73;23.24
55912;BME280;41823;45.534;-73.332;2022-09-03T10:21:14;101693.53;;;31.49;23.31
55912;BME280;41823;45.534;-73.332;2022-09-03T10:23:49;101696.64;;;31.39;23.37
55912;BME280;41823;45.534;-73.332;2022-09-03T10:26:21;101694.85;;;31.61;23.18
55912;BME280;41823;45.534;-73.332;2022-09-03T10:28:51;101690.71;;;31.80;23.18
55912;BME280;41823;45.534;-73.332;2022-09-03T10:31:33;101694.21;;;31.59;23.37
55912;BME280;41823;45.534;-73.332;2022-09-03T10:34:11;101697.75;;;31.58;23.18
55912;BME280;41823;45.534;-73.332;2022-09-03T10:36:46;101695.01;;;31.61;23.06
55912;BME280;41823;45.534;-73.332;2022-09-03T10:39:22;101695.01;;;31.36;23.30
55912;BME280;41823;45.534;-73.332;2022-09-03T10:42:04;101697.80;;;31.76;23.11
55912;BME280;41823;45.534;-73.332;2022-09-03T10:44:52;101692.80;;;31.53;23.14
55912;BME280;41823;45.534;-73.332;2022-09-03T10:47:38;101685.98;;;31.92;23.03
55912;BME280;41823;45.534;-73.332;2022-09-03T10:50:14;101688.14;;;31.94;23.01
55912;BME280;41823;45.534;-73.332;2022-09-03T10:53:00;101690.19;;;31.61;23.08
55912;BME280;41823;45.534;-73.332;2022-09-03T10:55:37;101685.13;;;31.74;23.14
55912;BME280;41823;45.534;-73.332;2022-09-03T10:58:19;101689.52;;;31.42;23.20
55912;BME280;41823;45.534;-73.332;2022-09-03T11:00:54;101689.91;;;31.83;22.95
55912;BME280;41823;45.534;-73.332;2022-09-03T11:03:40;101688.32;;;31.63;23.20
55912;BME280;41823;45.534;-73.332;2022-09-03T11:06:15;101689.33;;;31.67;23.00
55912;BME280;41823;45.534;-73.332;2022-09-03T11:08:50;101685.09;;;31.41;23.12
55912;BME280;41823;45.534;-73.332;2022-09-03T11:11:23;101686.41;;;31.43;23.12
55912;BME280;41823;45.534;-73.332;2022-09-03T11:13:58;101684.94;;;31.82;23.02
55912;BME280;41823;45.534;-73.332;2022-09-03T11:16:32;101681.75;;;31.61;22.91
55912;BME280;41823;45.534;-73.332;2022-09-03T11:19:04;101677.81;;;31.89;22.83
55912;BME280;41823;45.534;-73.332;2022-09-03T11:21:34;101676.55;;;31.87;22.80
55912;BME280;41823;45.534;-73.332;2022-09-03T11:24:08;101678.93;;;31.47;22.91
55912;BME280;41823;45.534;-73.332;2022-09-03T11:26:42;101677.18;;;31.77;22.72
55912;BME280;41823;45.534;-73.332;2022-09-03T11:29:15;101680.98;;;31.36;22.70
55912;BME280;41823;45.534;-73.332;2022-09-03T11:31:54;101682.11;;;31.79;22.72
55912;BME280;41823;45.534;-73.332;2022-09-03T11:34:29;101687.48;;;31.41;22.90
55912;BME280;41823;45.534;-73.332;2022-09-03T11:37:06;101687.19;;;31.82;22.79
55912;BME280;41823;45.534;-73.332;2022-09-03T11:39:42;101686.70;;;31.90;22.55
55912;BME280;41823;45.534;-73.332;2022-09-03T11:42:19;101690.27;;;32.06;22.70
55912;BME280;41823;45.534;-73.332;2022-09-03T11:44:58;101685.67;;;31.77;22.74
55912;BME280;41823;45.534;-73.332;2022-09-03T11:47:37;101686.60;;;31.35;22.99
55912;BME280;41823;45.534;-73.332;2022-09-03T11:50:19;101681.65;;;32.12;22.70
55912;BME280;41823;45.534;-73.332;2022-09-03T11:52:48;101679.66;;;31.55;22.81
55912;BME280;41823;45.534;-73.332;2022-09-03T11:55:33;101676.07;;;31.99;22.85
55912;BME280;41823;45.534;-73.332;2022-09-03T11:58:22;101670.64;;;32.06;22.85
55912;BME280;41823;45.534;-73.332;2022-09-03T12:00:51;101667.60;;;31.81;22.97
55912;BME280;41823;45.534;-73.332;2022-09-03T12:03:25;101670.31;;;32.22;22.76
55912;BME280;41823;45.534;-73.332;2022-09-03T12:06:09;101663.09;;;31.83;22.78
55912;BME280;41823;45.534;-73.332;2022-09-03T12:08:51;101660.15;;;32.17;22.99
55912;BME280;41823;45.534;-73.332;2022-09-03T12:11:34;101659.21;;;31.93;22.87
55912;BME280;41823;45.534;-73.332;2022-09-03T12:14:12;101653.57;;;32.17;22.95
55912;BME280;41823;45.534;-73.332;2022-09-03T12:17:04;101655.66;;;32.38;22.83
55912;BME280;41823;45.534;-73.332;2022-09-03T12:19:40;101659.00;;;31.96;22.80
55912;BME280;41823;45.534;-73.332;2022-09-03T12:22:13;101657.71;;;31.98;22.81
55912;BME280;41823;45.534;-73.332;2022-09-03T12:24:42;101658.74;;;32.14;22.73
55912;BME280;41823;45.534;-73.332;2022-09-03T12:27:15;101654.32;;;32.24;22.95
55912;BME280;41823;45.534;-73.332;2022-09-03T12:29:52;101653.67;;;32.38;22.79
55912;BME280;41823;45.534;-73.332;2022-09-03T12:32:20;101660.35;;;32.33;22.53
55912;BME280;41823;45.534;-73.332;2022-09-03T12:34:48;101660.95;;;32.47;22.78
55912;BME280;41823;45.534;-73.332;2022-09-03T12:37:19;101657.38;;;32.30;22.66
55912;BME280;41823;45.534;-73.332;2022-09-03T12:39:51;101655.35;;;31.93;22.98
55912;BME280;41823;45.534;-73.332;2022-09-03T12:42:23;101659.59;;;32.42;22.98
55912;BME280;41823;45.534;-73.332;2022-09-03T12:44:52;101655.34;;;32.45;22.99
55912;BME280;41823;45.534;-73.332;2022-09-03T12:47:21;101654.65;;;32.38;22.86
55912;BME280;41823;45.534;-73.332;2022-09-03T12:49:51;101657.62;;;32.56;22.95
55912;BME280;41823;45.534;-73.332;2022-09-03T12:52:23;101662.72;;;32.38;22.86
55912;BME280;41823;45.534;-73.332;2022-09-03T12:54:57;101659.37;;;32.50;23.03